Time;durP1;ratioP1;P1;durP2;ratioP2;P2;SDS_P1;SDS_P2;PMS_P1;PMS_P2;Temp;Humidity;BMP_temperature;BMP_pressure;BME280_temperature;BME280_humidity;BME280_pressure;Samples;Min_cycle;Max_cycle;Signal;HPM_P1;HPM_P2
2022/07/09 00:00:09;;;;;;;;;;;21.80;49.40;;;;;;5061899;28;19970;-68
2022/07/09 00:02:36;;;;;;;;;;;21.80;49.40;;;;;;5061681;28;20598;-68
2022/07/09 00:05:03;;;;;;;;;;;21.80;49.50;;;;;;5064849;28;19921;-68
2022/07/09 00:07:30;;;;;;;;;;;21.80;49.50;;;;;;5065882;28;19990;-68
2022/07/09 00:09:58;;;;;;;;;;;21.80;49.50;;;;;;5066065;28;19967;-68
2022/07/09 00:12:24;;;;;;;;;;;21.80;49.50;;;;;;5065031;28;20019;-68
2022/07/09 00:14:51;;;;;;;;;;;21.80;49.50;;;;;;5063688;28;19932;-68
2022/07/09 00:17:18;;;;;;;;;;;21.80;49.60;;;;;;5042649;28;19966;-68
2022/07/09 00:19:44;;;;;;;;;;;21.80;49.50;;;;;;5063511;28;19960;-68
2022/07/09 00:22:11;;;;;;;;;;;21.80;49.60;;;;;;5062140;28;20324;-68
2022/07/09 00:24:38;;;;;;;;;;;21.80;49.60;;;;;;5046491;28;19931;-68
2022/07/09 00:27:06;;;;;;;;;;;21.80;49.60;;;;;;5049396;28;19929;-68
2022/07/09 00:29:33;;;;;;;;;;;21.80;49.60;;;;;;5047241;28;19920;-68
2022/07/09 00:32:00;;;;;;;;;;;21.80;49.60;;;;;;5048976;28;19920;-68
2022/07/09 00:34:27;;;;;;;;;;;21.80;49.70;;;;;;5066018;28;19921;-68
2022/07/09 00:36:54;;;;;;;;;;;21.80;49.70;;;;;;5063710;28;20254;-68
2022/07/09 00:39:20;;;;;;;;;;;21.80;49.70;;;;;;5063266;28;19920;-66
2022/07/09 00:41:47;;;;;;;;;;;21.80;49.70;;;;;;5063764;28;19920;-68
2022/07/09 00:44:17;;;;;;;;;;;21.80;49.70;;;;;;5064609;28;19990;-69
2022/07/09 00:46:44;;;;;;;;;;;21.80;49.80;;;;;;5066561;28;19928;-69
2022/07/09 00:49:10;;;;;;;;;;;21.80;49.80;;;;;;5049854;28;19959;-69
2022/07/09 00:51:37;;;;;;;;;;;21.80;49.80;;;;;;5065702;28;19932;-68
2022/07/09 00:54:04;;;;;;;;;;;21.80;49.80;;;;;;5060221;28;20009;-68
2022/07/09 00:56:31;;;;;;;;;;;21.80;49.80;;;;;;5064977;28;20289;-68
2022/07/09 00:58:58;;;;;;;;;;;21.80;49.80;;;;;;5044713;28;19920;-68
2022/07/09 01:01:26;;;;;;;;;;;21.80;49.80;;;;;;5044872;28;19955;-68
2022/07/09 01:03:53;;;;;;;;;;;21.80;49.80;;;;;;5046358;28;19933;-68
2022/07/09 01:06:20;;;;;;;;;;;21.80;49.90;;;;;;5064847;28;20029;-69
2022/07/09 01:08:47;;;;;;;;;;;21.80;49.80;;;;;;5062447;28;19931;-69
2022/07/09 01:11:13;;;;;;;;;;;21.80;49.90;;;;;;5061915;28;20278;-69
2022/07/09 01:13:40;;;;;;;;;;;21.80;49.90;;;;;;5064552;28;20315;-68
2022/07/09 01:16:12;;;;;;;;;;;21.80;49.90;;;;;;5045118;28;19924;-69
2022/07/09 01:18:40;;;;;;;;;;;21.80;49.90;;;;;;5061982;28;20065;-68
2022/07/09 01:21:08;;;;;;;;;;;21.80;49.90;;;;;;5044559;28;19951;-68
2022/07/09 01:23:35;;;;;;;;;;;21.80;49.90;;;;;;5061195;28;19924;-69
2022/07/09 01:26:01;;;;;;;;;;;21.80;49.90;;;;;;5058879;28;19927;-69
2022/07/09 01:28:28;;;;;;;;;;;21.80;49.90;;;;;;5061529;28;19921;-69
2022/07/09 01:30:55;;;;;;;;;;;21.80;50.00;;;;;;5065322;28;20370;-69
2022/07/09 01:33:21;;;;;;;;;;;21.80;49.90;;;;;;5062708;28;20328;-68
2022/07/09 01:35:48;;;;;;;;;;;21.80;50.00;;;;;;5045662;28;19929;-69
2022/07/09 01:38:16;;;;;;;;;;;21.80;50.00;;;;;;5044225;28;19933;-69
2022/07/09 01:40:43;;;;;;;;;;;21.80;50.00;;;;;;5063104;28;19933;-69
2022/07/09 01:43:10;;;;;;;;;;;21.80;50.00;;;;;;5063363;28;19982;-69
2022/07/09 01:45:37;;;;;;;;;;;21.80;50.00;;;;;;5043524;28;19928;-68
2022/07/09 01:48:04;;;;;;;;;;;21.80;50.00;;;;;;5061848;28;19921;-68
2022/07/09 01:50:31;;;;;;;;;;;21.80;50.00;;;;;;5058320;28;20359;-68
2022/07/09 01:52:57;;;;;;;;;;;21.80;50.00;;;;;;5059691;28;19929;-68
2022/07/09 01:55:26;;;;;;;;;;;21.80;50.00;;;;;;5062926;28;19924;-68
2022/07/09 01:57:53;;;;;;;;;;;21.80;50.10;;;;;;5065056;28;19931;-69
2022/07/09 02:00:20;;;;;;;;;;;21.80;50.10;;;;;;5043534;28;19937;-69
2022/07/09 02:02:46;;;;;;;;;;;21.80;50.10;;;;;;5062701;28;19928;-69
2022/07/09 02:05:13;;;;;;;;;;;21.80;50.10;;;;;;5059982;28;20365;-69
2022/07/09 02:07:40;;;;;;;;;;;21.80;50.10;;;;;;5047673;28;19924;-69
2022/07/09 02:10:07;;;;;;;;;;;21.80;50.20;;;;;;5042155;28;19929;-68
2022/07/09 02:12:36;;;;;;;;;;;21.80;50.20;;;;;;5045608;28;20376;-68
2022/07/09 02:15:02;;;;;;;;;;;21.80;50.20;;;;;;5059798;28;19943;-69
2022/07/09 02:17:29;;;;;;;;;;;21.80;50.20;;;;;;5057892;28;20362;-69
2022/07/09 02:19:56;;;;;;;;;;;21.80;50.20;;;;;;5058149;28;19928;-69
2022/07/09 02:22:22;;;;;;;;;;;21.80;50.20;;;;;;5063061;28;20358;-69
2022/07/09 02:24:49;;;;;;;;;;;21.80;50.30;;;;;;5043580;28;19920;-69
2022/07/09 02:27:16;;;;;;;;;;;21.80;50.30;;;;;;5043190;28;19920;-69
2022/07/09 02:29:44;;;;;;;;;;;21.80;50.30;;;;;;5046812;28;19920;-68
2022/07/09 02:32:11;;;;;;;;;;;21.80;50.30;;;;;;5058127;28;20405;-69
2022/07/09 02:34:38;;;;;;;;;;;21.80;50.30;;;;;;5045396;28;20384;-69
2022/07/09 02:37:05;;;;;;;;;;;21.80;50.30;;;;;;5044317;28;19929;-69
2022/07/09 02:39:31;;;;;;;;;;;21.80;50.30;;;;;;5062674;28;19921;-69
2022/07/09 02:41:58;;;;;;;;;;;21.80;50.30;;;;;;5060820;28;20178;-69
2022/07/09 02:44:27;;;;;;;;;;;21.80;50.30;;;;;;5061767;28;20124;-69
2022/07/09 02:46:55;;;;;;;;;;;21.80;50.40;;;;;;5062615;28;20309;-69
2022/07/09 02:49:23;;;;;;;;;;;21.80;50.40;;;;;;5062291;28;19924;-69
2022/07/09 02:51:50;;;;;;;;;;;21.80;50.40;;;;;;5043310;28;19921;-69
2022/07/09 02:54:16;;;;;;;;;;;21.80;50.40;;;;;;5061456;28;19936;-69
2022/07/09 02:56:43;;;;;;;;;;;21.80;50.40;;;;;;5064078;28;20449;-69
2022/07/09 02:59:10;;;;;;;;;;;21.80;50.40;;;;;;5063121;28;19924;-69
2022/07/09 03:01:37;;;;;;;;;;;21.80;50.40;;;;;;5046035;28;19920;-69
2022/07/09 03:04:05;;;;;;;;;;;21.80;50.50;;;;;;5045025;28;20002;-69
2022/07/09 03:06:32;;;;;;;;;;;21.80;50.50;;;;;;5059505;28;19924;-69
2022/07/09 03:08:59;;;;;;;;;;;21.80;50.50;;;;;;5058839;28;19973;-69
2022/07/09 03:11:26;;;;;;;;;;;21.80;50.50;;;;;;5044981;28;19974;-69
2022/07/09 03:13:53;;;;;;;;;;;21.80;50.50;;;;;;5060387;28;20340;-69
2022/07/09 03:16:19;;;;;;;;;;;21.80;50.50;;;;;;5041209;28;19921;-69
2022/07/09 03:18:46;;;;;;;;;;;21.80;50.50;;;;;;5066647;28;19927;-67
2022/07/09 03:21:14;;;;;;;;;;;21.80;50.50;;;;;;5049298;28;19975;-69
2022/07/09 03:23:41;;;;;;;;;;;21.80;50.60;;;;;;5046622;28;19990;-69
2022/07/09 03:26:08;;;;;;;;;;;21.80;50.60;;;;;;5065451;28;19920;-69
2022/07/09 03:28:35;;;;;;;;;;;21.80;50.60;;;;;;5064711;28;20391;-69
2022/07/09 03:31:01;;;;;;;;;;;21.80;50.60;;;;;;5058060;28;19975;-69
2022/07/09 03:33:28;;;;;;;;;;;21.80;50.60;;;;;;5044728;28;19928;-69
2022/07/09 03:35:56;;;;;;;;;;;21.80;50.60;;;;;;5065992;28;20279;-70
2022/07/09 03:38:24;;;;;;;;;;;21.80;50.70;;;;;;5066850;28;20287;-69
2022/07/09 03:40:52;;;;;;;;;;;21.80;50.70;;;;;;5048859;28;19928;-69
2022/07/09 03:43:19;;;;;;;;;;;21.80;50.70;;;;;;5068052;28;19920;-69
2022/07/09 03:45:45;;;;;;;;;;;21.80;50.70;;;;;;5044636;28;19921;-69
2022/07/09 03:48:12;;;;;;;;;;;21.80;50.80;;;;;;5067460;28;19920;-69
2022/07/09 03:50:39;;;;;;;;;;;21.80;50.80;;;;;;5046649;28;19928;-69
2022/07/09 03:53:06;;;;;;;;;;;21.80;50.80;;;;;;5044084;28;19921;-69
2022/07/09 03:55:34;;;;;;;;;;;21.80;50.90;;;;;;5064814;28;19940;-69
2022/07/09 03:58:01;;;;;;;;;;;21.80;50.90;;;;;;5046709;28;19955;-69
2022/07/09 04:00:28;;;;;;;;;;;21.80;51.00;;;;;;5064715;28;19924;-69
2022/07/09 04:02:55;;;;;;;;;;;21.80;51.00;;;;;;5061927;28;19921;-69
2022/07/09 04:05:22;;;;;;;;;;;21.80;51.00;;;;;;5069426;28;19924;-69
2022/07/09 04:07:49;;;;;;;;;;;21.80;51.00;;;;;;5046042;28;20508;-69
2022/07/09 04:10:16;;;;;;;;;;;21.80;51.00;;;;;;5061232;28;19970;-69
2022/07/09 04:12:44;;;;;;;;;;;21.80;51.10;;;;;;5061938;28;19967;-69
2022/07/09 04:15:11;;;;;;;;;;;21.80;51.10;;;;;;5062684;28;20396;-69
2022/07/09 04:17:38;;;;;;;;;;;21.80;51.10;;;;;;5062958;28;20297;-69
2022/07/09 04:20:05;;;;;;;;;;;21.80;51.20;;;;;;5046471;28;19932;-69
2022/07/09 04:22:32;;;;;;;;;;;21.80;51.20;;;;;;5044168;28;19927;-69
2022/07/09 04:24:59;;;;;;;;;;;21.80;51.20;;;;;;5050002;28;19928;-69
2022/07/09 04:27:26;;;;;;;;;;;21.80;51.20;;;;;;5061789;28;19920;-69
2022/07/09 04:29:54;;;;;;;;;;;21.80;51.20;;;;;;5066434;28;19940;-69
2022/07/09 04:32:21;;;;;;;;;;;21.80;51.20;;;;;;5045161;28;20057;-69
2022/07/09 04:34:48;;;;;;;;;;;21.90;51.40;;;;;;5060338;28;19974;-69
2022/07/09 04:37:14;;;;;;;;;;;21.80;51.30;;;;;;5063734;28;19932;-69
2022/07/09 04:39:41;;;;;;;;;;;21.80;51.30;;;;;;5060163;28;20357;-69
2022/07/09 04:42:09;;;;;;;;;;;21.80;51.40;;;;;;5049881;28;19932;-69
2022/07/09 04:44:36;;;;;;;;;;;21.80;51.40;;;;;;5048035;28;20370;-69
2022/07/09 04:47:05;;;;;;;;;;;21.80;51.40;;;;;;5045537;28;19994;-69
2022/07/09 04:49:32;;;;;;;;;;;21.80;51.40;;;;;;5061975;28;19931;-69
2022/07/09 04:51:58;;;;;;;;;;;21.80;51.40;;;;;;5042475;28;19921;-69
2022/07/09 04:54:25;;;;;;;;;;;21.80;51.50;;;;;;5065380;28;20451;-69
2022/07/09 04:56:52;;;;;;;;;;;21.80;51.50;;;;;;5061728;28;19974;-69
2022/07/09 04:59:19;;;;;;;;;;;21.80;51.50;;;;;;5064934;28;20020;-69
2022/07/09 05:01:46;;;;;;;;;;;21.80;51.50;;;;;;5058799;28;19924;-69
2022/07/09 05:04:14;;;;;;;;;;;21.90;51.60;;;;;;5061478;28;19940;-70
2022/07/09 05:06:41;;;;;;;;;;;21.80;51.60;;;;;;5045427;28;20012;-69
2022/07/09 05:09:08;;;;;;;;;;;21.80;51.60;;;;;;5061482;28;20037;-69
2022/07/09 05:11:34;;;;;;;;;;;21.80;51.60;;;;;;5058590;28;20397;-69
2022/07/09 05:14:01;;;;;;;;;;;21.80;51.60;;;;;;5043829;28;20397;-69
2022/07/09 05:16:28;;;;;;;;;;;21.80;51.60;;;;;;5060936;28;20023;-69
2022/07/09 05:18:55;;;;;;;;;;;21.80;51.70;;;;;;5062269;28;19926;-69
2022/07/09 05:21:23;;;;;;;;;;;21.80;51.70;;;;;;5061516;28;20115;-69
2022/07/09 05:23:50;;;;;;;;;;;21.80;51.70;;;;;;5056962;28;19920;-69
2022/07/09 05:26:17;;;;;;;;;;;21.80;51.70;;;;;;5045718;28;19928;-67
2022/07/09 05:28:44;;;;;;;;;;;21.80;51.80;;;;;;5040646;28;19928;-67
2022/07/09 05:31:10;;;;;;;;;;;21.80;51.80;;;;;;5064281;28;19925;-67
2022/07/09 05:33:37;;;;;;;;;;;21.90;51.90;;;;;;5042474;28;19963;-70
2022/07/09 05:36:04;;;;;;;;;;;21.90;51.90;;;;;;5041539;28;19928;-69
2022/07/09 05:38:32;;;;;;;;;;;21.90;51.90;;;;;;5059351;28;19920;-69
2022/07/09 05:40:59;;;;;;;;;;;21.90;51.90;;;;;;5046323;28;19952;-67
2022/07/09 05:43:25;;;;;;;;;;;21.90;51.90;;;;;;5044203;28;20356;-67
2022/07/09 05:45:52;;;;;;;;;;;21.90;52.00;;;;;;5029303;28;19920;-67
2022/07/09 05:48:19;;;;;;;;;;;21.90;52.00;;;;;;5065001;28;19921;-67
2022/07/09 05:50:46;;;;;;;;;;;21.90;52.00;;;;;;5060034;28;19924;-67
2022/07/09 05:53:13;;;;;;;;;;;21.90;52.00;;;;;;5045486;28;19931;-67
2022/07/09 05:55:41;;;;;;;;;;;21.90;52.10;;;;;;5055144;28;19966;-67
2022/07/09 05:58:08;;;;;;;;;;;21.90;52.10;;;;;;5062669;28;19978;-69
2022/07/09 06:00:35;;;;;;;;;;;21.90;52.10;;;;;;5061918;28;20270;-70
2022/07/09 06:03:02;;;;;;;;;;;21.90;52.20;;;;;;5044451;28;19920;-69
2022/07/09 06:05:29;;;;;;;;;;;21.90;52.20;;;;;;5045452;28;20361;-69
2022/07/09 06:07:55;;;;;;;;;;;21.90;52.20;;;;;;5061245;28;19921;-70
2022/07/09 06:10:22;;;;;;;;;;;21.90;52.20;;;;;;5040908;28;20024;-69
2022/07/09 06:12:51;;;;;;;;;;;21.90;52.30;;;;;;5064172;28;20015;-69
2022/07/09 06:15:17;;;;;;;;;;;21.90;52.30;;;;;;5046523;28;19973;-69
2022/07/09 06:17:44;;;;;;;;;;;21.90;52.30;;;;;;5062084;28;19925;-69
2022/07/09 06:20:11;;;;;;;;;;;21.90;52.40;;;;;;5045924;28;19964;-67
2022/07/09 06:22:38;;;;;;;;;;;21.90;52.40;;;;;;5039662;28;20359;-67
2022/07/09 06:25:05;;;;;;;;;;;21.90;52.40;;;;;;5043785;28;19920;-67
2022/07/09 06:27:32;;;;;;;;;;;21.90;52.50;;;;;;5059966;28;20019;-69
2022/07/09 06:30:00;;;;;;;;;;;21.90;52.50;;;;;;5060331;28;19933;-69
2022/07/09 06:32:27;;;;;;;;;;;21.90;52.60;;;;;;5060574;28;19931;-69
2022/07/09 06:34:53;;;;;;;;;;;21.90;52.60;;;;;;5063417;28;19920;-69
2022/07/09 06:37:20;;;;;;;;;;;21.90;52.60;;;;;;5047234;28;19942;-69
2022/07/09 06:39:48;;;;;;;;;;;21.90;52.60;;;;;;5038995;28;19982;-67
2022/07/09 06:42:16;;;;;;;;;;;21.90;52.70;;;;;;5045100;28;20031;-67
2022/07/09 06:44:42;;;;;;;;;;;21.90;52.70;;;;;;5061592;28;20018;-67
2022/07/09 06:47:10;;;;;;;;;;;21.90;52.80;;;;;;5063782;28;19963;-67
2022/07/09 06:49:37;;;;;;;;;;;21.90;52.70;;;;;;5041818;28;20461;-67
2022/07/09 06:52:04;;;;;;;;;;;21.90;52.80;;;;;;5059544;28;19979;-67
2022/07/09 06:54:31;;;;;;;;;;;21.90;52.80;;;;;;5045575;28;19983;-67
2022/07/09 06:56:58;;;;;;;;;;;21.90;52.80;;;;;;5044924;28;20373;-67
2022/07/09 06:59:25;;;;;;;;;;;21.90;52.90;;;;;;5044976;28;19920;-67
2022/07/09 07:01:51;;;;;;;;;;;21.90;52.90;;;;;;5059232;28;19920;-67
2022/07/09 07:04:24;;;;;;;;;;;21.90;52.90;;;;;;5063498;28;19921;-67
2022/07/09 07:06:51;;;;;;;;;;;21.90;52.90;;;;;;5059073;28;19921;-67
2022/07/09 07:09:21;;;;;;;;;;;21.90;52.90;;;;;;5041702;28;19921;-67
2022/07/09 07:11:50;;;;;;;;;;;21.90;53.00;;;;;;5054771;28;19940;-67
2022/07/09 07:14:16;;;;;;;;;;;21.90;53.00;;;;;;5059533;28;20414;-67
2022/07/09 07:16:43;;;;;;;;;;;21.90;53.10;;;;;;5058150;28;19972;-67
2022/07/09 07:19:10;;;;;;;;;;;21.90;53.10;;;;;;5061079;28;19955;-67
2022/07/09 07:21:38;;;;;;;;;;;21.90;53.20;;;;;;5060063;28;19929;-70
2022/07/09 07:24:05;;;;;;;;;;;21.90;53.20;;;;;;5059197;28;19921;-69
2022/07/09 07:26:32;;;;;;;;;;;21.90;53.20;;;;;;5039570;28;19931;-69
2022/07/09 07:28:59;;;;;;;;;;;21.90;53.20;;;;;;5042975;28;20092;-69
2022/07/09 07:31:26;;;;;;;;;;;21.90;53.20;;;;;;5059945;28;19925;-69
2022/07/09 07:33:53;;;;;;;;;;;21.90;53.20;;;;;;5039130;28;19921;-70
2022/07/09 07:36:20;;;;;;;;;;;22.00;53.40;;;;;;5058944;28;19921;-67
2022/07/09 07:38:48;;;;;;;;;;;22.00;53.40;;;;;;5042708;28;19921;-68
2022/07/09 07:41:16;;;;;;;;;;;22.00;53.40;;;;;;5043426;28;19967;-68
2022/07/09 07:43:43;;;;;;;;;;;22.00;53.90;;;;;;5044887;28;19932;-68
2022/07/09 07:46:10;;;;;;;;;;;21.90;53.40;;;;;;5066761;28;19924;-68
2022/07/09 07:48:36;;;;;;;;;;;22.00;53.50;;;;;;5040886;28;19932;-68
2022/07/09 07:51:04;;;;;;;;;;;22.00;53.50;;;;;;5057177;28;19936;-68
2022/07/09 07:53:31;;;;;;;;;;;22.00;53.50;;;;;;5065297;28;19920;-68
2022/07/09 07:55:59;;;;;;;;;;;22.00;53.50;;;;;;5039652;28;19956;-68
2022/07/09 07:58:26;;;;;;;;;;;22.00;53.60;;;;;;5034670;28;19920;-68
2022/07/09 08:00:53;;;;;;;;;;;22.00;53.60;;;;;;5059125;28;19985;-68
2022/07/09 08:03:19;;;;;;;;;;;22.00;53.60;;;;;;5056591;28;19928;-68
2022/07/09 08:05:46;;;;;;;;;;;22.00;53.60;;;;;;5046164;28;19920;-68
2022/07/09 08:08:13;;;;;;;;;;;22.00;53.70;;;;;;5048293;28;19920;-68
2022/07/09 08:10:40;;;;;;;;;;;22.00;53.70;;;;;;5045276;28;19978;-68
2022/07/09 08:13:08;;;;;;;;;;;22.00;53.70;;;;;;5060439;28;19920;-68
2022/07/09 08:15:35;;;;;;;;;;;22.00;53.70;;;;;;5046670;28;20428;-68
2022/07/09 08:18:02;;;;;;;;;;;22.00;53.70;;;;;;5044249;28;19920;-68
2022/07/09 08:20:28;;;;;;;;;;;22.00;53.70;;;;;;5057793;28;19929;-68
2022/07/09 08:22:55;;;;;;;;;;;22.00;53.80;;;;;;5047352;28;19966;-68
2022/07/09 08:25:22;;;;;;;;;;;22.00;53.80;;;;;;5058065;28;19975;-68
2022/07/09 08:27:49;;;;;;;;;;;22.00;53.80;;;;;;5045308;28;19928;-69
2022/07/09 08:30:17;;;;;;;;;;;22.00;53.90;;;;;;5065894;28;19986;-68
2022/07/09 08:32:44;;;;;;;;;;;22.00;53.90;;;;;;5043915;28;19920;-68
2022/07/09 08:35:11;;;;;;;;;;;22.00;53.90;;;;;;5063895;28;19969;-67
2022/07/09 08:37:38;;;;;;;;;;;22.00;53.90;;;;;;5055476;28;19929;-68
2022/07/09 08:40:05;;;;;;;;;;;22.00;54.00;;;;;;5054156;28;20293;-68
2022/07/09 08:42:32;;;;;;;;;;;22.00;54.00;;;;;;5037832;28;19921;-67
2022/07/09 08:44:59;;;;;;;;;;;22.00;54.00;;;;;;5055495;28;19932;-67
2022/07/09 08:47:27;;;;;;;;;;;22.00;54.00;;;;;;5056488;28;19921;-67
2022/07/09 08:49:55;;;;;;;;;;;22.00;53.90;;;;;;5058964;28;19925;-67
2022/07/09 08:52:22;;;;;;;;;;;22.00;53.90;;;;;;5058348;28;20362;-67
2022/07/09 08:54:49;;;;;;;;;;;22.00;53.90;;;;;;5058261;28;19955;-67
2022/07/09 08:57:16;;;;;;;;;;;22.00;54.00;;;;;;5040921;28;19920;-67
2022/07/09 08:59:42;;;;;;;;;;;22.00;54.00;;;;;;5057503;28;19924;-67
2022/07/09 09:02:13;;;;;;;;;;;22.00;54.00;;;;;;5055727;28;19924;-67
2022/07/09 09:04:41;;;;;;;;;;;22.00;54.10;;;;;;5038471;28;19970;-67
2022/07/09 09:07:15;;;;;;;;;;;22.00;54.00;;;;;;5055432;28;19924;-67
2022/07/09 09:09:41;;;;;;;;;;;22.10;54.10;;;;;;5055271;28;19921;-67
2022/07/09 09:12:08;;;;;;;;;;;22.00;54.00;;;;;;5038603;28;20015;-67
2022/07/09 09:14:35;;;;;;;;;;;22.00;54.00;;;;;;5053803;28;19920;-67
2022/07/09 09:17:06;;;;;;;;;;;22.10;54.10;;;;;;5055660;28;19983;-67
2022/07/09 09:19:33;;;;;;;;;;;22.10;54.10;;;;;;5055022;28;20340;-67
2022/07/09 09:22:02;;;;;;;;;;;22.10;54.20;;;;;;5052959;28;19924;-67
2022/07/09 09:24:29;;;;;;;;;;;22.10;54.20;;;;;;5054870;28;19966;-67
2022/07/09 09:27:02;;;;;;;;;;;22.10;54.20;;;;;;5066649;28;19926;-67
2022/07/09 09:29:29;;;;;;;;;;;22.10;54.10;;;;;;5053866;28;19924;-67
2022/07/09 09:31:56;;;;;;;;;;;22.10;54.30;;;;;;5053980;28;19921;-67
2022/07/09 09:34:23;;;;;;;;;;;22.10;54.30;;;;;;5036582;28;19974;-68
2022/07/09 09:36:51;;;;;;;;;;;22.10;54.20;;;;;;5074222;28;19931;-68
2022/07/09 09:39:20;;;;;;;;;;;22.10;54.20;;;;;;5055056;28;19928;-68
2022/07/09 09:41:48;;;;;;;;;;;22.10;54.10;;;;;;5053649;28;19928;-68
2022/07/09 09:44:15;;;;;;;;;;;22.10;54.10;;;;;;5037283;28;19921;-68
2022/07/09 09:46:42;;;;;;;;;;;22.10;54.10;;;;;;5037870;28;19975;-67
2022/07/09 09:49:09;;;;;;;;;;;22.10;54.20;;;;;;5054981;28;19975;-67
2022/07/09 09:51:36;;;;;;;;;;;22.10;54.10;;;;;;5071463;28;19974;-68
2022/07/09 09:54:03;;;;;;;;;;;22.10;54.10;;;;;;5057527;28;20334;-67
2022/07/09 09:56:32;;;;;;;;;;;22.10;54.10;;;;;;5075112;28;19924;-67
2022/07/09 09:58:59;;;;;;;;;;;22.10;54.10;;;;;;5057335;28;20024;-67
2022/07/09 10:01:26;;;;;;;;;;;22.10;54.80;;;;;;5050711;28;19970;-67
2022/07/09 10:03:53;;;;;;;;;;;22.10;54.10;;;;;;5038320;28;19929;-67
2022/07/09 10:06:20;;;;;;;;;;;22.10;54.10;;;;;;5054919;28;19920;-68
2022/07/09 10:08:46;;;;;;;;;;;22.10;54.10;;;;;;5073987;28;20358;-67
2022/07/09 10:11:13;;;;;;;;;;;22.10;54.10;;;;;;5053960;28;19920;-67
2022/07/09 10:13:51;;;;;;;;;;;22.10;54.00;;;;;;5054654;28;19932;-67
2022/07/09 10:16:17;;;;;;;;;;;22.10;54.00;;;;;;5070661;28;19920;-67
2022/07/09 10:18:51;;;;;;;;;;;22.10;53.90;;;;;;5057607;28;19920;-67
2022/07/09 10:21:17;;;;;;;;;;;22.10;53.80;;;;;;5072131;28;19942;-67
2022/07/09 10:23:49;;;;;;;;;;;22.10;53.70;;;;;;5074840;28;19920;-67
2022/07/09 10:26:16;;;;;;;;;;;22.10;53.70;;;;;;5067812;28;19921;-68
2022/07/09 10:28:43;;;;;;;;;;;22.10;53.60;;;;;;5054706;28;19957;-69
2022/07/09 10:31:12;;;;;;;;;;;22.10;53.60;;;;;;5047744;28;19973;-69
2022/07/09 10:33:39;;;;;;;;;;;22.10;53.60;;;;;;5056648;28;19920;-69
2022/07/09 10:36:10;;;;;;;;;;;22.10;53.50;;;;;;5071133;28;19926;-69
2022/07/09 10:38:38;;;;;;;;;;;22.10;53.40;;;;;;5073628;28;19968;-69
2022/07/09 10:41:05;;;;;;;;;;;22.10;53.20;;;;;;5064410;28;19920;-69
2022/07/09 10:43:38;;;;;;;;;;;22.10;53.20;;;;;;5053103;28;19925;-69
2022/07/09 10:46:11;;;;;;;;;;;22.10;53.10;;;;;;5034532;28;19920;-69
2022/07/09 10:48:38;;;;;;;;;;;22.10;53.20;;;;;;5054266;28;19920;-68
2022/07/09 10:51:05;;;;;;;;;;;22.10;53.10;;;;;;5052951;28;19920;-69
2022/07/09 10:53:32;;;;;;;;;;;22.10;53.10;;;;;;5053804;28;19932;-69
2022/07/09 10:55:59;;;;;;;;;;;22.10;53.00;;;;;;5048324;28;20246;-69
2022/07/09 10:58:26;;;;;;;;;;;22.10;53.00;;;;;;5057355;28;19927;-69
2022/07/09 11:00:56;;;;;;;;;;;22.10;53.00;;;;;;5073228;28;19920;-69
2022/07/09 11:03:26;;;;;;;;;;;22.10;52.90;;;;;;5056575;28;19920;-70
2022/07/09 11:05:53;;;;;;;;;;;22.10;52.80;;;;;;5071795;28;19920;-69
2022/07/09 11:08:20;;;;;;;;;;;22.10;52.70;;;;;;5073133;28;19921;-69
2022/07/09 11:10:47;;;;;;;;;;;22.10;52.70;;;;;;5044382;28;20007;-69
2022/07/09 11:13:13;;;;;;;;;;;22.10;52.70;;;;;;5056052;28;19920;-69
2022/07/09 11:15:40;;;;;;;;;;;22.10;52.70;;;;;;5050616;28;19932;-69
2022/07/09 11:18:07;;;;;;;;;;;22.10;52.70;;;;;;5052701;28;19921;-69
2022/07/09 11:20:39;;;;;;;;;;;22.10;52.80;;;;;;5052930;28;19920;-69
2022/07/09 11:23:06;;;;;;;;;;;22.10;52.80;;;;;;5054362;28;19966;-69
2022/07/09 11:25:33;;;;;;;;;;;22.10;52.80;;;;;;5053023;28;20329;-69
2022/07/09 11:28:00;;;;;;;;;;;22.10;52.70;;;;;;5052598;28;19921;-69
2022/07/09 11:30:27;;;;;;;;;;;22.10;52.70;;;;;;5053698;28;20420;-69
2022/07/09 11:32:53;;;;;;;;;;;22.10;52.70;;;;;;5053552;28;19967;-69
2022/07/09 11:35:27;;;;;;;;;;;22.00;52.60;;;;;;5052519;28;19920;-69
2022/07/09 11:37:55;;;;;;;;;;;22.10;52.70;;;;;;5054448;28;20404;-69
2022/07/09 11:40:22;;;;;;;;;;;22.00;52.60;;;;;;5056321;28;19929;-69
2022/07/09 11:42:49;;;;;;;;;;;22.00;52.60;;;;;;5056521;28;19921;-69
2022/07/09 11:45:16;;;;;;;;;;;22.00;52.70;;;;;;5039519;28;19967;-69
2022/07/09 11:47:45;;;;;;;;;;;22.10;52.70;;;;;;5056723;28;19978;-69
2022/07/09 11:50:12;;;;;;;;;;;22.10;52.80;;;;;;5057176;28;19975;-69
2022/07/09 11:52:44;;;;;;;;;;;22.10;52.80;;;;;;5056073;28;20317;-69
2022/07/09 11:55:12;;;;;;;;;;;22.10;52.90;;;;;;5040152;28;19927;-70
2022/07/09 11:57:39;;;;;;;;;;;22.10;52.90;;;;;;5055596;28;20362;-69
2022/07/09 12:00:06;;;;;;;;;;;22.10;53.10;;;;;;5056535;28;20023;-69
2022/07/09 12:02:33;;;;;;;;;;;22.10;53.30;;;;;;5057073;28;20384;-69
2022/07/09 12:05:00;;;;;;;;;;;22.10;53.20;;;;;;5055541;28;19920;-69
2022/07/09 12:07:27;;;;;;;;;;;22.10;53.10;;;;;;5062834;28;20350;-69
2022/07/09 12:10:00;;;;;;;;;;;22.10;53.10;;;;;;5059023;28;20296;-69
2022/07/09 12:12:28;;;;;;;;;;;22.10;53.20;;;;;;5070759;28;19921;-69
2022/07/09 12:14:55;;;;;;;;;;;22.10;53.20;;;;;;5039029;28;19920;-69
2022/07/09 12:17:23;;;;;;;;;;;22.00;53.00;;;;;;5056824;28;20039;-69
2022/07/09 12:19:50;;;;;;;;;;;22.00;53.00;;;;;;5071882;28;19921;-70
2022/07/09 12:22:17;;;;;;;;;;;22.00;52.90;;;;;;5039650;28;19927;-69
2022/07/09 12:24:44;;;;;;;;;;;22.00;52.80;;;;;;5055567;28;19920;-69
2022/07/09 12:27:11;;;;;;;;;;;22.00;52.70;;;;;;5056323;28;19990;-69
2022/07/09 12:29:39;;;;;;;;;;;22.10;52.70;;;;;;5039427;28;20019;-69
2022/07/09 12:32:06;;;;;;;;;;;22.10;52.70;;;;;;5055643;28;19962;-69
2022/07/09 12:34:33;;;;;;;;;;;22.00;52.50;;;;;;5038351;28;20015;-70
2022/07/09 12:37:00;;;;;;;;;;;22.00;52.50;;;;;;5038634;28;19967;-69
2022/07/09 12:39:27;;;;;;;;;;;22.00;52.30;;;;;;5038597;28;19974;-69
2022/07/09 12:41:53;;;;;;;;;;;22.00;52.20;;;;;;5038878;28;20424;-69
2022/07/09 12:44:20;;;;;;;;;;;22.00;52.20;;;;;;5055172;28;19921;-69
2022/07/09 12:46:48;;;;;;;;;;;22.00;52.10;;;;;;5021767;28;20354;-69
2022/07/09 12:49:15;;;;;;;;;;;22.00;51.90;;;;;;5038016;28;19925;-69
2022/07/09 12:51:42;;;;;;;;;;;22.00;51.70;;;;;;5055950;28;20346;-69
2022/07/09 12:54:08;;;;;;;;;;;22.00;51.70;;;;;;5038314;28;19967;-69
2022/07/09 12:56:35;;;;;;;;;;;22.00;51.70;;;;;;5055824;28;20354;-70
2022/07/09 12:59:02;;;;;;;;;;;22.00;51.80;;;;;;5037882;28;20378;-69
2022/07/09 13:01:29;;;;;;;;;;;22.00;51.80;;;;;;5037882;28;20274;-70
2022/07/09 13:03:57;;;;;;;;;;;22.00;51.80;;;;;;5038151;28;20045;-69
2022/07/09 13:06:33;;;;;;;;;;;22.00;51.60;;;;;;5037986;28;20251;-69
2022/07/09 13:09:00;;;;;;;;;;;22.00;51.60;;;;;;5038662;28;19927;-69
2022/07/09 13:11:27;;;;;;;;;;;22.00;51.60;;;;;;5053873;28;19967;-69
2022/07/09 13:13:54;;;;;;;;;;;22.00;51.40;;;;;;5057997;28;19920;-68
2022/07/09 13:16:22;;;;;;;;;;;22.00;51.10;;;;;;5058542;28;19920;-71
2022/07/09 13:18:48;;;;;;;;;;;22.00;51.10;;;;;;5057953;28;20042;-68
2022/07/09 13:21:16;;;;;;;;;;;22.00;50.90;;;;;;5073490;28;19921;-68
2022/07/09 13:23:44;;;;;;;;;;;21.90;50.80;;;;;;5075064;28;19990;-68
2022/07/09 13:26:10;;;;;;;;;;;21.90;50.60;;;;;;5074286;28;19950;-68
2022/07/09 13:28:37;;;;;;;;;;;21.90;50.50;;;;;;5075541;28;19924;-69
2022/07/09 13:31:05;;;;;;;;;;;21.90;50.10;;;;;;5075149;28;19970;-69
2022/07/09 13:33:32;;;;;;;;;;;21.90;50.10;;;;;;5074412;28;20011;-69
2022/07/09 13:35:59;;;;;;;;;;;21.90;49.90;;;;;;5072649;28;19921;-68
2022/07/09 13:38:27;;;;;;;;;;;21.90;49.60;;;;;;5074102;28;20342;-69
2022/07/09 13:40:54;;;;;;;;;;;21.90;49.60;;;;;;5075933;28;19925;-69
2022/07/09 13:43:21;;;;;;;;;;;21.90;49.70;;;;;;5075035;28;19972;-69
2022/07/09 13:45:48;;;;;;;;;;;21.90;49.60;;;;;;5074094;28;19920;-68
2022/07/09 13:48:14;;;;;;;;;;;21.90;49.50;;;;;;5074860;28;20356;-69
2022/07/09 13:50:41;;;;;;;;;;;21.90;49.30;;;;;;5074131;28;19924;-69
2022/07/09 13:53:09;;;;;;;;;;;21.90;49.30;;;;;;5056823;28;19927;-69
2022/07/09 13:55:37;;;;;;;;;;;21.90;49.10;;;;;;5073503;28;19951;-68
2022/07/09 13:58:04;;;;;;;;;;;21.90;48.70;;;;;;5057252;28;19920;-68
2022/07/09 14:00:31;;;;;;;;;;;21.80;48.60;;;;;;5057775;28;19921;-68
2022/07/09 14:02:58;;;;;;;;;;;21.80;48.40;;;;;;5073681;28;19950;-69
2022/07/09 14:05:24;;;;;;;;;;;21.80;48.40;;;;;;5073396;28;20320;-68
2022/07/09 14:07:51;;;;;;;;;;;21.80;48.60;;;;;;5073859;28;19994;-68
2022/07/09 14:10:18;;;;;;;;;;;21.80;48.40;;;;;;5075001;28;19920;-68
2022/07/09 14:12:46;;;;;;;;;;;21.80;48.40;;;;;;5073990;28;19974;-69
2022/07/09 14:15:13;;;;;;;;;;;21.80;48.50;;;;;;5073460;28;20370;-69